Aérodrome :
LOGIN :

S'inscrire | Disclaimer

   EN    FR    IT 

 










Légende :    VFR   VFR Marginal   IFR   IFR Intensif   IFR Très Intensif
Visi : 
Plafond : 
>= 8 km
>= 3000ft
5 à 8 km
1000 à 3000 ft
1500m à 5 km
500 à 1000 ft
800 à 1500m
200 à 500 ft
< 800m
< 200 ft
Symboles :   Orages  Brouillard  Fortes neiges  Fortes précipitations  Vent > 20 kt
SIGMETs :   Divers  Orages  Givrage  Turbulence  Onde Orograph.  Cendres Volcan.







- Altitude de l'aérodrome : 913 ft
- Voir les cartes d'approche


LFSX - Luxeuil

DERNIER METAR :
  • 212230Z AUTO 10005KT 9999 FEW040 BKN100 BKN120 17/17 Q1013

METARs EXPIRÉS :
  • 212200Z AUTO 11004KT CAVOK 17/17 Q1013
  • 212130Z AUTO 10004KT CAVOK 18/17 Q1013
  • 212100Z AUTO 09005KT CAVOK 18/17 Q1013
  • 212030Z AUTO 10005KT CAVOK 18/17 Q1013
  • 212000Z AUTO VRB03KT CAVOK 17/17 Q1012
  • 211930Z AUTO 12006KT CAVOK 18/17 Q1012

TAF AMD TAF LFSX
Valide du 21 à 09h jusqu'au 22 à 09h UTC


210815Z 2109/2209 VRB05KT CAVOK
TEMPO 2117/2124 4000 SHRA SCT040TCU BKN050
PROB30
TEMPO 2118/2122 VRB15G30KT 3000 TSRA BKN030CB OVC040
TEMPO 2200/2207 SCT010
Pas de NOTAMs connus pour ce terrain.



MET'MAP, la Météo Aéronautique d'un coup d'oeil ! - Copyright ORBIFLY Décembre 2007 - Disclaimer

ORBIFLY MET'MAP TEAM :

Programmation & Développement : Alexandra Zaïnal
Conception & Développement : Baudouin d'Aumeries
Co-Programmation & Développement : Marc-Olivier Méhu
Soutien technique & logistique : Manuel Goepfert

Contact : metmap@orbifly.com




SOURCES & CREDITS :

   NOAA